sensor_id;sensor_type;location;lat;lon;timestamp;P1;durP1;ratioP1;P2;durP2;ratioP2
34982;SDS011;21187;50.976;13.720;2023-04-19T00:04:08;22.45;;;11.02;;
34982;SDS011;21187;50.976;13.720;2023-04-19T00:09:10;21.42;;;11.25;;
34982;SDS011;21187;50.976;13.720;2023-04-19T00:14:12;20.00;;;9.95;;
34982;SDS011;21187;50.976;13.720;2023-04-19T00:19:14;23.30;;;11.23;;
34982;SDS011;21187;50.976;13.720;2023-04-19T00:24:16;23.65;;;9.88;;
34982;SDS011;21187;50.976;13.720;2023-04-19T00:29:18;20.45;;;8.95;;
34982;SDS011;21187;50.976;13.720;2023-04-19T00:34:20;16.42;;;7.95;;
34982;SDS011;21187;50.976;13.720;2023-04-19T00:39:22;20.55;;;8.25;;
34982;SDS011;21187;50.976;13.720;2023-04-19T00:44:24;17.25;;;8.30;;
34982;SDS011;21187;50.976;13.720;2023-04-19T00:49:27;16.08;;;7.90;;
34982;SDS011;21187;50.976;13.720;2023-04-19T00:54:30;14.85;;;7.90;;
34982;SDS011;21187;50.976;13.720;2023-04-19T00:59:33;17.13;;;7.55;;
34982;SDS011;21187;50.976;13.720;2023-04-19T01:04:37;13.07;;;7.40;;
34982;SDS011;21187;50.976;13.720;2023-04-19T01:09:40;17.25;;;7.65;;
34982;SDS011;21187;50.976;13.720;2023-04-19T01:14:43;16.88;;;8.68;;
34982;SDS011;21187;50.976;13.720;2023-04-19T01:19:45;21.42;;;8.30;;
34982;SDS011;21187;50.976;13.720;2023-04-19T01:24:47;13.70;;;7.50;;
34982;SDS011;21187;50.976;13.720;2023-04-19T01:29:49;16.70;;;8.02;;
34982;SDS011;21187;50.976;13.720;2023-04-19T01:34:51;15.48;;;7.47;;
34982;SDS011;21187;50.976;13.720;2023-04-19T01:39:53;18.30;;;8.02;;
34982;SDS011;21187;50.976;13.720;2023-04-19T01:44:55;19.25;;;7.53;;
34982;SDS011;21187;50.976;13.720;2023-04-19T01:49:57;15.60;;;7.50;;
34982;SDS011;21187;50.976;13.720;2023-04-19T01:54:58;19.27;;;7.80;;
34982;SDS011;21187;50.976;13.720;2023-04-19T02:00:00;19.98;;;8.98;;
34982;SDS011;21187;50.976;13.720;2023-04-19T02:05:06;16.38;;;8.18;;
34982;SDS011;21187;50.976;13.720;2023-04-19T02:10:09;15.02;;;7.72;;
34982;SDS011;21187;50.976;13.720;2023-04-19T02:15:14;17.50;;;7.72;;
34982;SDS011;21187;50.976;13.720;2023-04-19T02:20:16;17.95;;;8.55;;
34982;SDS011;21187;50.976;13.720;2023-04-19T02:25:18;17.48;;;9.00;;
34982;SDS011;21187;50.976;13.720;2023-04-19T02:30:20;18.08;;;9.95;;
34982;SDS011;21187;50.976;13.720;2023-04-19T02:35:23;19.85;;;8.52;;
34982;SDS011;21187;50.976;13.720;2023-04-19T02:40:25;19.80;;;7.85;;
34982;SDS011;21187;50.976;13.720;2023-04-19T02:45:27;22.98;;;8.18;;
34982;SDS011;21187;50.976;13.720;2023-04-19T02:50:29;16.67;;;8.52;;
34982;SDS011;21187;50.976;13.720;2023-04-19T02:55:31;17.92;;;9.05;;
34982;SDS011;21187;50.976;13.720;2023-04-19T03:00:48;21.60;;;8.88;;
34982;SDS011;21187;50.976;13.720;2023-04-19T03:05:54;19.67;;;8.82;;
34982;SDS011;21187;50.976;13.720;2023-04-19T03:10:56;20.67;;;9.98;;
34982;SDS011;21187;50.976;13.720;2023-04-19T03:15:59;20.55;;;9.93;;
34982;SDS011;21187;50.976;13.720;2023-04-19T03:21:03;17.92;;;8.55;;
34982;SDS011;21187;50.976;13.720;2023-04-19T03:26:14;19.52;;;8.23;;
34982;SDS011;21187;50.976;13.720;2023-04-19T03:31:20;23.52;;;8.65;;
34982;SDS011;21187;50.976;13.720;2023-04-19T03:36:24;19.02;;;9.07;;
34982;SDS011;21187;50.976;13.720;2023-04-19T03:41:27;20.67;;;10.30;;
34982;SDS011;21187;50.976;13.720;2023-04-19T03:46:49;25.55;;;10.55;;
34982;SDS011;21187;50.976;13.720;2023-04-19T03:51:56;23.95;;;9.98;;
34982;SDS011;21187;50.976;13.720;2023-04-19T03:56:59;20.20;;;9.70;;
34982;SDS011;21187;50.976;13.720;2023-04-19T04:02:01;19.90;;;10.32;;
34982;SDS011;21187;50.976;13.720;2023-04-19T04:07:04;24.38;;;11.15;;
34982;SDS011;21187;50.976;13.720;2023-04-19T04:12:06;22.63;;;10.77;;
34982;SDS011;21187;50.976;13.720;2023-04-19T04:17:09;30.65;;;12.88;;
34982;SDS011;21187;50.976;13.720;2023-04-19T04:22:11;29.65;;;12.20;;
34982;SDS011;21187;50.976;13.720;2023-04-19T04:27:15;23.50;;;12.20;;
34982;SDS011;21187;50.976;13.720;2023-04-19T04:32:23;32.92;;;11.95;;
34982;SDS011;21187;50.976;13.720;2023-04-19T04:37:31;27.55;;;12.32;;
34982;SDS011;21187;50.976;13.720;2023-04-19T04:42:37;25.17;;;11.13;;
34982;SDS011;21187;50.976;13.720;2023-04-19T04:47:40;21.02;;;10.07;;
34982;SDS011;21187;50.976;13.720;2023-04-19T04:52:44;22.73;;;9.73;;
34982;SDS011;21187;50.976;13.720;2023-04-19T04:57:52;16.85;;;7.50;;
34982;SDS011;21187;50.976;13.720;2023-04-19T05:03:02;22.73;;;7.60;;
34982;SDS011;21187;50.976;13.720;2023-04-19T05:08:09;14.05;;;7.22;;
34982;SDS011;21187;50.976;13.720;2023-04-19T05:13:12;15.25;;;6.35;;
34982;SDS011;21187;50.976;13.720;2023-04-19T05:18:14;15.73;;;7.15;;
34982;SDS011;21187;50.976;13.720;2023-04-19T05:23:16;20.15;;;7.38;;
34982;SDS011;21187;50.976;13.720;2023-04-19T05:28:19;18.00;;;6.38;;
34982;SDS011;21187;50.976;13.720;2023-04-19T05:33:33;13.48;;;5.72;;
34982;SDS011;21187;50.976;13.720;2023-04-19T05:38:35;12.25;;;5.57;;
34982;SDS011;21187;50.976;13.720;2023-04-19T05:43:38;10.05;;;4.60;;
34982;SDS011;21187;50.976;13.720;2023-04-19T05:48:41;13.40;;;4.05;;
34982;SDS011;21187;50.976;13.720;2023-04-19T05:54:01;11.00;;;4.53;;
34982;SDS011;21187;50.976;13.720;2023-04-19T05:59:05;14.35;;;3.92;;
34982;SDS011;21187;50.976;13.720;2023-04-19T06:04:07;6.72;;;3.70;;
34982;SDS011;21187;50.976;13.720;2023-04-19T06:09:09;9.93;;;3.50;;
34982;SDS011;21187;50.976;13.720;2023-04-19T06:14:14;8.80;;;3.33;;
34982;SDS011;21187;50.976;13.720;2023-04-19T06:19:17;8.07;;;3.10;;
34982;SDS011;21187;50.976;13.720;2023-04-19T06:24:19;9.88;;;3.38;;
34982;SDS011;21187;50.976;13.720;2023-04-19T06:29:21;10.20;;;3.22;;
34982;SDS011;21187;50.976;13.720;2023-04-19T06:34:24;8.70;;;2.80;;
34982;SDS011;21187;50.976;13.720;2023-04-19T06:39:26;5.55;;;2.97;;
34982;SDS011;21187;50.976;13.720;2023-04-19T06:44:28;6.72;;;3.00;;
34982;SDS011;21187;50.976;13.720;2023-04-19T06:49:30;7.13;;;2.78;;
34982;SDS011;21187;50.976;13.720;2023-04-19T06:54:32;5.65;;;2.72;;
34982;SDS011;21187;50.976;13.720;2023-04-19T06:59:34;5.22;;;2.20;;
34982;SDS011;21187;50.976;13.720;2023-04-19T07:04:40;4.95;;;2.25;;
34982;SDS011;21187;50.976;13.720;2023-04-19T07:09:42;9.95;;;2.30;;
34982;SDS011;21187;50.976;13.720;2023-04-19T07:14:44;13.90;;;2.65;;
34982;SDS011;21187;50.976;13.720;2023-04-19T07:19:46;5.55;;;2.42;;
34982;SDS011;21187;50.976;13.720;2023-04-19T07:24:49;3.38;;;2.15;;
34982;SDS011;21187;50.976;13.720;2023-04-19T07:29:52;6.90;;;2.25;;
34982;SDS011;21187;50.976;13.720;2023-04-19T07:34:54;5.40;;;2.65;;
34982;SDS011;21187;50.976;13.720;2023-04-19T07:39:56;5.57;;;2.38;;
34982;SDS011;21187;50.976;13.720;2023-04-19T07:44:58;6.45;;;2.30;;
34982;SDS011;21187;50.976;13.720;2023-04-19T07:50:00;5.13;;;2.28;;
34982;SDS011;21187;50.976;13.720;2023-04-19T07:55:02;6.20;;;2.33;;
34982;SDS011;21187;50.976;13.720;2023-04-19T08:00:04;6.68;;;2.00;;
34982;SDS011;21187;50.976;13.720;2023-04-19T08:05:15;7.25;;;2.50;;
34982;SDS011;21187;50.976;13.720;2023-04-19T08:10:18;6.80;;;2.50;;
34982;SDS011;21187;50.976;13.720;2023-04-19T08:15:22;6.40;;;2.20;;
34982;SDS011;21187;50.976;13.720;2023-04-19T08:20:47;3.75;;;2.25;;
34982;SDS011;21187;50.976;13.720;2023-04-19T08:25:49;5.72;;;2.63;;
34982;SDS011;21187;50.976;13.720;2023-04-19T08:30:51;5.72;;;2.53;;
34982;SDS011;21187;50.976;13.720;2023-04-19T08:35:54;6.57;;;2.67;;
34982;SDS011;21187;50.976;13.720;2023-04-19T08:40:56;11.35;;;2.75;;
34982;SDS011;21187;50.976;13.720;2023-04-19T08:45:58;5.82;;;2.58;;
34982;SDS011;21187;50.976;13.720;2023-04-19T08:51:00;9.07;;;2.65;;
34982;SDS011;21187;50.976;13.720;2023-04-19T08:56:06;13.23;;;3.50;;
34982;SDS011;21187;50.976;13.720;2023-04-19T09:01:28;6.18;;;2.75;;
34982;SDS011;21187;50.976;13.720;2023-04-19T09:06:39;7.30;;;2.80;;
34982;SDS011;21187;50.976;13.720;2023-04-19T09:11:42;7.20;;;2.65;;
34982;SDS011;21187;50.976;13.720;2023-04-19T09:16:44;7.72;;;2.70;;
34982;SDS011;21187;50.976;13.720;2023-04-19T09:21:46;9.70;;;3.30;;
34982;SDS011;21187;50.976;13.720;2023-04-19T09:26:52;7.53;;;3.03;;
34982;SDS011;21187;50.976;13.720;2023-04-19T09:31:56;8.05;;;3.20;;
34982;SDS011;21187;50.976;13.720;2023-04-19T09:37:12;9.57;;;2.70;;
34982;SDS011;21187;50.976;13.720;2023-04-19T09:42:44;4.55;;;2.58;;
34982;SDS011;21187;50.976;13.720;2023-04-19T09:48:09;5.00;;;3.15;;
34982;SDS011;21187;50.976;13.720;2023-04-19T09:53:11;19.90;;;3.75;;
34982;SDS011;21187;50.976;13.720;2023-04-19T09:58:15;6.68;;;3.42;;
34982;SDS011;21187;50.976;13.720;2023-04-19T10:03:17;5.68;;;3.28;;
34982;SDS011;21187;50.976;13.720;2023-04-19T10:08:20;11.00;;;3.28;;
34982;SDS011;21187;50.976;13.720;2023-04-19T10:13:22;6.75;;;2.95;;
34982;SDS011;21187;50.976;13.720;2023-04-19T10:18:27;8.05;;;2.90;;
34982;SDS011;21187;50.976;13.720;2023-04-19T10:23:30;4.60;;;2.85;;
34982;SDS011;21187;50.976;13.720;2023-04-19T10:28:34;7.78;;;3.15;;
34982;SDS011;21187;50.976;13.720;2023-04-19T10:33:37;5.15;;;2.58;;
34982;SDS011;21187;50.976;13.720;2023-04-19T10:38:39;6.85;;;2.88;;
34982;SDS011;21187;50.976;13.720;2023-04-19T10:48:58;7.05;;;2.90;;
34982;SDS011;21187;50.976;13.720;2023-04-19T10:54:05;9.38;;;2.85;;
34982;SDS011;21187;50.976;13.720;2023-04-19T10:59:10;8.50;;;3.75;;
34982;SDS011;21187;50.976;13.720;2023-04-19T11:09:34;8.27;;;2.80;;
34982;SDS011;21187;50.976;13.720;2023-04-19T11:14:39;10.25;;;3.13;;
34982;SDS011;21187;50.976;13.720;2023-04-19T11:20:01;6.43;;;2.58;;
34982;SDS011;21187;50.976;13.720;2023-04-19T11:25:12;6.50;;;2.95;;
34982;SDS011;21187;50.976;13.720;2023-04-19T11:30:18;8.68;;;2.60;;
34982;SDS011;21187;50.976;13.720;2023-04-19T11:35:24;6.03;;;2.30;;
34982;SDS011;21187;50.976;13.720;2023-04-19T11:40:27;5.38;;;2.85;;
34982;SDS011;21187;50.976;13.720;2023-04-19T11:45:33;5.47;;;2.80;;
34982;SDS011;21187;50.976;13.720;2023-04-19T11:50:41;6.47;;;3.05;;
34982;SDS011;21187;50.976;13.720;2023-04-19T11:55:44;6.10;;;2.78;;
34982;SDS011;21187;50.976;13.720;2023-04-19T12:00:54;7.57;;;2.40;;
34982;SDS011;21187;50.976;13.720;2023-04-19T12:05:57;9.10;;;2.65;;
34982;SDS011;21187;50.976;13.720;2023-04-19T12:11:01;3.83;;;2.30;;
34982;SDS011;21187;50.976;13.720;2023-04-19T12:16:04;7.30;;;2.85;;
34982;SDS011;21187;50.976;13.720;2023-04-19T12:21:06;5.45;;;2.28;;
34982;SDS011;21187;50.976;13.720;2023-04-19T12:26:08;3.70;;;2.03;;
34982;SDS011;21187;50.976;13.720;2023-04-19T12:31:10;7.40;;;2.95;;
34982;SDS011;21187;50.976;13.720;2023-04-19T12:36:12;6.32;;;2.63;;
34982;SDS011;21187;50.976;13.720;2023-04-19T12:41:13;8.95;;;2.90;;
34982;SDS011;21187;50.976;13.720;2023-04-19T12:46:15;9.18;;;2.60;;
34982;SDS011;21187;50.976;13.720;2023-04-19T12:51:17;9.35;;;2.95;;
34982;SDS011;21187;50.976;13.720;2023-04-19T12:56:19;5.18;;;2.67;;
34982;SDS011;21187;50.976;13.720;2023-04-19T13:01:21;7.05;;;2.72;;
34982;SDS011;21187;50.976;13.720;2023-04-19T13:06:24;7.00;;;2.72;;
34982;SDS011;21187;50.976;13.720;2023-04-19T13:11:26;6.88;;;3.13;;
34982;SDS011;21187;50.976;13.720;2023-04-19T13:16:28;4.20;;;2.45;;
34982;SDS011;21187;50.976;13.720;2023-04-19T13:21:30;13.65;;;3.10;;
34982;SDS011;21187;50.976;13.720;2023-04-19T13:26:32;4.32;;;2.63;;
34982;SDS011;21187;50.976;13.720;2023-04-19T13:31:37;7.68;;;3.08;;
34982;SDS011;21187;50.976;13.720;2023-04-19T13:36:39;6.30;;;2.67;;
34982;SDS011;21187;50.976;13.720;2023-04-19T13:41:41;8.95;;;3.47;;
34982;SDS011;21187;50.976;13.720;2023-04-19T13:46:43;9.27;;;3.28;;
34982;SDS011;21187;50.976;13.720;2023-04-19T13:51:45;10.00;;;3.20;;
34982;SDS011;21187;50.976;13.720;2023-04-19T13:56:51;4.75;;;2.85;;
34982;SDS011;21187;50.976;13.720;2023-04-19T14:01:53;8.48;;;3.10;;
34982;SDS011;21187;50.976;13.720;2023-04-19T14:06:56;5.53;;;3.33;;
34982;SDS011;21187;50.976;13.720;2023-04-19T14:11:58;23.83;;;7.63;;
34982;SDS011;21187;50.976;13.720;2023-04-19T14:17:00;6.60;;;3.60;;
34982;SDS011;21187;50.976;13.720;2023-04-19T14:22:02;6.80;;;3.33;;
34982;SDS011;21187;50.976;13.720;2023-04-19T14:27:04;7.65;;;2.80;;
34982;SDS011;21187;50.976;13.720;2023-04-19T14:32:11;10.25;;;2.80;;
34982;SDS011;21187;50.976;13.720;2023-04-19T14:37:26;9.00;;;3.03;;
34982;SDS011;21187;50.976;13.720;2023-04-19T14:42:29;6.85;;;3.70;;
34982;SDS011;21187;50.976;13.720;2023-04-19T14:47:31;6.32;;;3.38;;
34982;SDS011;21187;50.976;13.720;2023-04-19T14:52:33;9.88;;;3.10;;
34982;SDS011;21187;50.976;13.720;2023-04-19T14:57:35;9.32;;;3.20;;
34982;SDS011;21187;50.976;13.720;2023-04-19T15:02:37;11.40;;;3.55;;
34982;SDS011;21187;50.976;13.720;2023-04-19T15:07:39;6.40;;;3.60;;
34982;SDS011;21187;50.976;13.720;2023-04-19T15:12:40;7.05;;;2.85;;
34982;SDS011;21187;50.976;13.720;2023-04-19T15:17:42;7.47;;;2.25;;
34982;SDS011;21187;50.976;13.720;2023-04-19T15:22:44;6.68;;;2.78;;
34982;SDS011;21187;50.976;13.720;2023-04-19T15:27:46;6.03;;;3.67;;
34982;SDS011;21187;50.976;13.720;2023-04-19T15:32:48;10.85;;;4.30;;
34982;SDS011;21187;50.976;13.720;2023-04-19T15:37:50;5.55;;;3.40;;
34982;SDS011;21187;50.976;13.720;2023-04-19T15:42:51;9.60;;;4.28;;
34982;SDS011;21187;50.976;13.720;2023-04-19T15:47:53;7.25;;;3.78;;
34982;SDS011;21187;50.976;13.720;2023-04-19T15:52:55;11.55;;;4.35;;
34982;SDS011;21187;50.976;13.720;2023-04-19T15:57:57;6.85;;;3.60;;
34982;SDS011;21187;50.976;13.720;2023-04-19T16:03:00;6.43;;;3.90;;
34982;SDS011;21187;50.976;13.720;2023-04-19T16:08:06;7.90;;;3.45;;
34982;SDS011;21187;50.976;13.720;2023-04-19T16:13:09;10.68;;;4.95;;
34982;SDS011;21187;50.976;13.720;2023-04-19T16:18:13;11.15;;;4.63;;
34982;SDS011;21187;50.976;13.720;2023-04-19T16:23:15;9.93;;;4.95;;
34982;SDS011;21187;50.976;13.720;2023-04-19T16:28:18;11.68;;;6.15;;
34982;SDS011;21187;50.976;13.720;2023-04-19T16:33:20;9.95;;;4.90;;
34982;SDS011;21187;50.976;13.720;2023-04-19T16:38:22;8.15;;;4.60;;
34982;SDS011;21187;50.976;13.720;2023-04-19T16:43:24;10.23;;;5.00;;
34982;SDS011;21187;50.976;13.720;2023-04-19T16:48:25;8.75;;;4.28;;
34982;SDS011;21187;50.976;13.720;2023-04-19T16:53:29;8.25;;;4.13;;
34982;SDS011;21187;50.976;13.720;2023-04-19T16:58:31;10.65;;;4.05;;
34982;SDS011;21187;50.976;13.720;2023-04-19T17:03:33;8.90;;;4.70;;
34982;SDS011;21187;50.976;13.720;2023-04-19T17:08:35;12.05;;;3.75;;
34982;SDS011;21187;50.976;13.720;2023-04-19T17:13:38;7.13;;;3.90;;
34982;SDS011;21187;50.976;13.720;2023-04-19T17:18:40;7.10;;;3.97;;
34982;SDS011;21187;50.976;13.720;2023-04-19T17:23:43;8.35;;;4.10;;
34982;SDS011;21187;50.976;13.720;2023-04-19T17:28:45;7.80;;;4.05;;
34982;SDS011;21187;50.976;13.720;2023-04-19T17:33:47;9.13;;;4.70;;
34982;SDS011;21187;50.976;13.720;2023-04-19T17:38:49;9.77;;;4.68;;
34982;SDS011;21187;50.976;13.720;2023-04-19T17:43:51;12.77;;;6.40;;
34982;SDS011;21187;50.976;13.720;2023-04-19T17:48:53;13.57;;;5.60;;
34982;SDS011;21187;50.976;13.720;2023-04-19T17:53:55;10.65;;;4.57;;
34982;SDS011;21187;50.976;13.720;2023-04-19T17:58:57;12.52;;;5.78;;
34982;SDS011;21187;50.976;13.720;2023-04-19T18:04:01;10.95;;;5.15;;
34982;SDS011;21187;50.976;13.720;2023-04-19T18:09:03;10.07;;;5.45;;
34982;SDS011;21187;50.976;13.720;2023-04-19T18:14:05;9.55;;;5.63;;
34982;SDS011;21187;50.976;13.720;2023-04-19T18:19:07;13.00;;;5.70;;
34982;SDS011;21187;50.976;13.720;2023-04-19T18:24:09;13.35;;;6.32;;
34982;SDS011;21187;50.976;13.720;2023-04-19T18:29:11;11.18;;;4.82;;
34982;SDS011;21187;50.976;13.720;2023-04-19T18:34:16;9.13;;;4.85;;
34982;SDS011;21187;50.976;13.720;2023-04-19T18:39:18;12.10;;;6.43;;
34982;SDS011;21187;50.976;13.720;2023-04-19T18:44:20;9.02;;;4.78;;
34982;SDS011;21187;50.976;13.720;2023-04-19T18:49:42;11.35;;;5.05;;
34982;SDS011;21187;50.976;13.720;2023-04-19T18:54:58;12.70;;;6.60;;
34982;SDS011;21187;50.976;13.720;2023-04-19T19:00:00;13.68;;;5.88;;
34982;SDS011;21187;50.976;13.720;2023-04-19T19:05:03;11.43;;;5.20;;
34982;SDS011;21187;50.976;13.720;2023-04-19T19:10:08;8.25;;;4.75;;
34982;SDS011;21187;50.976;13.720;2023-04-19T19:15:13;15.95;;;4.97;;
34982;SDS011;21187;50.976;13.720;2023-04-19T19:20:17;13.50;;;5.43;;
34982;SDS011;21187;50.976;13.720;2023-04-19T19:25:20;17.13;;;5.38;;
34982;SDS011;21187;50.976;13.720;2023-04-19T19:30:23;9.07;;;4.80;;
34982;SDS011;21187;50.976;13.720;2023-04-19T19:35:26;9.23;;;5.60;;
34982;SDS011;21187;50.976;13.720;2023-04-19T19:40:29;6.80;;;3.45;;
34982;SDS011;21187;50.976;13.720;2023-04-19T19:45:33;8.02;;;3.40;;
34982;SDS011;21187;50.976;13.720;2023-04-19T19:50:37;8.23;;;4.25;;
34982;SDS011;21187;50.976;13.720;2023-04-19T19:55:59;5.45;;;3.42;;
34982;SDS011;21187;50.976;13.720;2023-04-19T20:01:02;5.22;;;3.30;;
34982;SDS011;21187;50.976;13.720;2023-04-19T20:06:04;6.57;;;3.50;;
34982;SDS011;21187;50.976;13.720;2023-04-19T20:11:10;5.75;;;3.30;;
34982;SDS011;21187;50.976;13.720;2023-04-19T20:16:12;8.75;;;4.50;;
34982;SDS011;21187;50.976;13.720;2023-04-19T20:21:16;7.68;;;3.75;;
34982;SDS011;21187;50.976;13.720;2023-04-19T20:26:20;7.95;;;3.67;;
34982;SDS011;21187;50.976;13.720;2023-04-19T20:31:22;7.40;;;3.97;;
34982;SDS011;21187;50.976;13.720;2023-04-19T20:36:24;8.88;;;4.28;;
34982;SDS011;21187;50.976;13.720;2023-04-19T20:41:27;7.53;;;3.78;;
34982;SDS011;21187;50.976;13.720;2023-04-19T20:46:29;6.63;;;3.72;;
34982;SDS011;21187;50.976;13.720;2023-04-19T20:51:32;6.38;;;3.42;;
34982;SDS011;21187;50.976;13.720;2023-04-19T20:56:34;6.32;;;3.55;;
34982;SDS011;21187;50.976;13.720;2023-04-19T21:01:36;3.92;;;3.08;;
34982;SDS011;21187;50.976;13.720;2023-04-19T21:06:38;5.90;;;3.50;;
34982;SDS011;21187;50.976;13.720;2023-04-19T21:11:39;7.57;;;3.60;;
34982;SDS011;21187;50.976;13.720;2023-04-19T21:16:41;5.20;;;3.72;;
34982;SDS011;21187;50.976;13.720;2023-04-19T21:21:43;5.07;;;3.40;;
34982;SDS011;21187;50.976;13.720;2023-04-19T21:26:45;6.35;;;3.35;;
34982;SDS011;21187;50.976;13.720;2023-04-19T21:31:47;9.40;;;3.85;;
34982;SDS011;21187;50.976;13.720;2023-04-19T21:36:49;5.70;;;3.55;;
34982;SDS011;21187;50.976;13.720;2023-04-19T21:41:50;5.45;;;3.38;;
34982;SDS011;21187;50.976;13.720;2023-04-19T21:46:52;9.73;;;3.63;;
34982;SDS011;21187;50.976;13.720;2023-04-19T21:51:54;4.97;;;3.45;;
34982;SDS011;21187;50.976;13.720;2023-04-19T21:56:57;5.68;;;3.63;;
34982;SDS011;21187;50.976;13.720;2023-04-19T22:02:00;9.30;;;3.42;;
34982;SDS011;21187;50.976;13.720;2023-04-19T22:07:02;5.80;;;3.42;;
34982;SDS011;21187;50.976;13.720;2023-04-19T22:12:04;8.82;;;3.65;;
34982;SDS011;21187;50.976;13.720;2023-04-19T22:17:06;6.65;;;3.58;;
34982;SDS011;21187;50.976;13.720;2023-04-19T22:22:09;7.72;;;4.28;;
34982;SDS011;21187;50.976;13.720;2023-04-19T22:27:11;6.90;;;3.92;;
34982;SDS011;21187;50.976;13.720;2023-04-19T22:32:13;6.30;;;4.13;;
34982;SDS011;21187;50.976;13.720;2023-04-19T22:37:15;6.43;;;3.80;;
34982;SDS011;21187;50.976;13.720;2023-04-19T22:42:16;6.63;;;3.95;;
34982;SDS011;21187;50.976;13.720;2023-04-19T22:47:18;7.10;;;4.05;;
34982;SDS011;21187;50.976;13.720;2023-04-19T22:52:20;6.93;;;4.18;;
34982;SDS011;21187;50.976;13.720;2023-04-19T22:57:22;9.93;;;4.20;;
34982;SDS011;21187;50.976;13.720;2023-04-19T23:02:24;10.52;;;4.32;;
34982;SDS011;21187;50.976;13.720;2023-04-19T23:07:26;7.40;;;4.35;;
34982;SDS011;21187;50.976;13.720;2023-04-19T23:12:29;6.22;;;3.55;;
34982;SDS011;21187;50.976;13.720;2023-04-19T23:17:31;6.45;;;4.20;;
34982;SDS011;21187;50.976;13.720;2023-04-19T23:22:33;6.82;;;4.03;;
34982;SDS011;21187;50.976;13.720;2023-04-19T23:27:35;8.23;;;4.53;;
34982;SDS011;21187;50.976;13.720;2023-04-19T23:32:37;6.40;;;4.45;;
34982;SDS011;21187;50.976;13.720;2023-04-19T23:37:39;6.57;;;4.28;;
34982;SDS011;21187;50.976;13.720;2023-04-19T23:42:41;8.30;;;4.53;;
34982;SDS011;21187;50.976;13.720;2023-04-19T23:47:43;8.00;;;4.57;;
34982;SDS011;21187;50.976;13.720;2023-04-19T23:52:45;7.10;;;4.30;;
34982;SDS011;21187;50.976;13.720;2023-04-19T23:57:47;5.82;;;3.58;;
